• Join FlightAware (Why Join?)
  • Login
  • US Flag 
08:49AM EDT


 

Airport Tracker/Info


-or-


 

Live Flight TrackerFlight Track Log ✈ EGF2982 ✈ 17-Apr-2013 ✈ KDFW - KGRK

Flight Track Log - Related Links

Times and Time Zones

All times are in EDT time to prevent confusion due to time zone crossing. See the EGF2982 flight status page for this flight to view local times or setup timezone preferences in your user account.

Time Position Orientation Groundspeed Altitude Reporting Facility
EDT Latitude Longitude Course Direction KTS MPH feet Rate Location/Type
07:28PM 32.8667 -97.0500 149° Southeast 160 184 1,800  Level Dallas / Fort Worth TRACON
07:29PM 32.8333 -97.0667 203° Southwest 196 226 3,300 2,100 Climbing Dallas / Fort Worth TRACON
07:30PM 32.6598 -97.1424 157° South  Level Estimated
07:31PM 32.5808 -97.1771 214° Southwest  Level Estimated
07:31PM 32.6994 -97.0975 191° South 219 252 8,400  Level Fort Worth Center
07:32PM 32.5017 -97.2117 205° Southwest  Level Estimated
07:32PM 32.6450 -97.1075 189° South 219 252 10,100  Level Fort Worth Center
07:33PM 32.4293 -97.1607 149° Southeast  Level FlightAware Approximate
07:33PM 32.5678 -97.1200 188° South 243 280 11,300  Level Fort Worth Center
07:34PM 32.4969 -97.1325 188° South 279 321 12,200 960 Climbing Fort Worth Center
07:35PM 32.4094 -97.1722 201° Southwest 300 345 13,300 1,200 Climbing Fort Worth Center
07:36PM 32.3447 -97.2289 216° Southwest 316 364 14,600 1,320 Climbing Fort Worth Center
07:37PM 32.2717 -97.3003 220° Southwest 323 372 16,000 660 Climbing Fort Worth Center
07:38PM 32.2028 -97.3594 216° Southwest 323 372 16,000  Level Fort Worth Center
07:39PM 32.1236 -97.4331 218° Southwest 329 379 16,000  Level Fort Worth Center
07:40PM 32.0589 -97.4919 218° Southwest 329 379 16,000  Level Fort Worth Center
07:41PM 31.9794 -97.5628 217° Southwest 329 379 16,000 -240 Level Fort Worth Center
07:42PM 31.9208 -97.6189 219° Southwest 332 382 15,600 -540 Descending Fort Worth Center
07:42PM 31.9125 -97.6264 217° Southwest 334 384 15,500 -1,020 Descending Fort Worth Center
07:42PM 31.8539 -97.6750 215° Southwest 339 390 14,700 -1,140 Descending Fort Worth Center
07:43PM 31.8308 -97.6969 219° Southwest 334 384 14,400 -1,140 Descending Fort Worth Center
07:43PM 31.7808 -97.7408 217° Southwest 316 364 13,600 -1,140 Descending Fort Worth Center
07:44PM 31.7597 -97.7578 214° Southwest 329 379 13,300 -600 Descending Fort Worth Center
07:44PM 31.7158 -97.7992 219° Southwest 301 346 13,000 -600 Descending Fort Worth Center
07:45PM 31.6969 -97.8161 217° Southwest 315 362 12,700 -1,380 Descending Fort Worth Center
07:45PM 31.6550 -97.8528 217° Southwest 255 293 11,600 -1,500 Descending Fort Worth Center
07:46PM 31.6383 -97.8672 216° Southwest 287 330 11,200 -1,860 Descending Fort Worth Center
07:47PM 31.5817 -97.9156 216° Southwest 266 306 9,200 -1,860 Descending Fort Worth Center
07:47PM 31.5294 -97.9228 187° South 267 307 8,100 -1,440 Descending Fort Worth Center
07:48PM 31.5067 -97.9225 179° South 253 291 7,800 -1,020 Descending Fort Worth Center
07:48PM 31.4647 -97.9272 185° South 234 269 7,100 -1,200 Descending Fort Worth Center
07:49PM 31.4439 -97.9294 185° South 253 291 6,600 -1,500 Descending Fort Worth Center
07:50PM 31.3958 -97.9367 187° South 217 250 5,500 -1,500 Descending Fort Worth Center
07:51PM 31.3333 -97.9436 185° South 210 242 3,900 -1,260 Descending Fort Worth Center
07:52PM 31.2811 -97.9358 173° South 205 236 3,000 -480 Descending Fort Worth Center
07:53PM 31.2247 -97.9089 158° South 201 231 3,000 -60 Level Fort Worth Center
07:54PM 31.1706 -97.8819 157° South 192 221 2,900 -420 Descending Fort Worth Center
07:55PM 31.1372 -97.8647 156° South 173 199 2,200 -660 Descending Fort Worth Center
07:56PM 31.1039 -97.8475 156° South 143 165 1,600 -600 Descending Fort Worth Center